To NAV CANADA Home Page Login to a new session Search on AWWS site Feedback and Comments Disclaimer Vers la page française équivalente Tips FAQ What's new on the site To the Forecasts and Observations / NOTAM section To "File a Flight Plan" website Publications and other links Update of the User's profile FIC Telephone Numbers My Weather Data Folder Route Weather Data Regional Weather Data Local Weather Data To the Forecasts and Observations / NOTAM section
Request Generated 05/30/2016 at 02:53:38 UTC . Weather information available at that time is displayed.

METAR/TAF

KUUJJUAQ/QC    

METAR CYVP 300200Z 06006KT 15SM FEW038 M00/M03 A3013 RMK SC1 SLP206=
METAR CYVP 300100Z 07007KT 15SM FEW045 01/M03 A3014 RMK SC1 SLP210=
METAR CYVP 300000Z 07009KT 15SM FEW045 03/M02 A3014 RMK SC2 SLP210=

TAF CYVP 292343Z 3000/3012 05008KT P6SM BKN040 TEMPO 3000/3012 FEW007
BKN020 PROB30 3004/3012 BKN007
RMK NXT FCST BY 300600Z=
Your time UTC time
Weather data provided by Environment Canada and NAV CANADA